Time;durP1;ratioP1;P1;durP2;ratioP2;P2;SDS_P1;SDS_P2;PMS_P1;PMS_P2;Temp;Humidity;BMP_temperature;BMP_pressure;BME280_temperature;BME280_humidity;BME280_pressure;Samples;Min_cycle;Max_cycle;Signal;HPM_P1;HPM_P2
2023/01/18 00:00:39;;;;;;;;;;;2.40;97.40;;;;;;5007345;28;19924;-67
2023/01/18 00:03:11;;;;;;;;;;;2.40;97.50;;;;;;5008896;28;19988;-67
2023/01/18 00:05:39;;;;;;;;;;;2.30;97.40;;;;;;5009260;28;20430;-67
2023/01/18 00:08:05;;;;;;;;;;;2.30;97.40;;;;;;5008639;28;20036;-67
2023/01/18 00:10:31;;;;;;;;;;;2.40;97.40;;;;;;5008619;28;19921;-67
2023/01/18 00:12:57;;;;;;;;;;;2.30;97.40;;;;;;5008593;28;19918;-67
2023/01/18 00:15:22;;;;;;;;;;;2.30;97.30;;;;;;5008774;28;19913;-67
2023/01/18 00:17:50;;;;;;;;;;;2.30;97.30;;;;;;5007769;28;19913;-67
2023/01/18 00:20:17;;;;;;;;;;;2.30;97.30;;;;;;4998580;28;19914;-67
2023/01/18 00:22:42;;;;;;;;;;;2.30;97.30;;;;;;4989020;28;19918;-67
2023/01/18 00:25:09;;;;;;;;;;;2.30;97.40;;;;;;4991551;28;20257;-67
2023/01/18 00:27:35;;;;;;;;;;;2.30;97.30;;;;;;4992537;28;19920;-67
2023/01/18 00:30:01;;;;;;;;;;;2.30;97.30;;;;;;4992375;28;19913;-67
2023/01/18 00:32:27;;;;;;;;;;;2.20;97.30;;;;;;4992681;28;19946;-67
2023/01/18 00:34:52;;;;;;;;;;;2.20;97.30;;;;;;5007355;28;19956;-67
2023/01/18 00:37:17;;;;;;;;;;;2.30;97.30;;;;;;5009155;28;20020;-67
2023/01/18 00:39:43;;;;;;;;;;;2.30;97.30;;;;;;5011974;28;19940;-66
2023/01/18 00:44:52;;;;;;;;;;;2.20;97.20;;;;;;5012242;28;19975;-66
2023/01/18 00:47:18;;;;;;;;;;;2.20;97.20;;;;;;5012055;28;20355;-67
2023/01/18 00:49:45;;;;;;;;;;;2.20;97.30;;;;;;5010684;28;19921;-67
2023/01/18 00:52:10;;;;;;;;;;;2.20;97.20;;;;;;5012058;28;20363;-67
2023/01/18 00:54:36;;;;;;;;;;;2.20;97.20;;;;;;5011948;28;19924;-67
2023/01/18 00:57:01;;;;;;;;;;;2.20;97.20;;;;;;5011952;28;19913;-67
2023/01/18 00:59:26;;;;;;;;;;;2.20;97.20;;;;;;5011248;28;20333;-67
2023/01/18 01:01:52;;;;;;;;;;;2.20;97.20;;;;;;5011750;28;19996;-66
2023/01/18 01:07:02;;;;;;;;;;;2.10;97.20;;;;;;5010930;28;19920;-67
2023/01/18 01:09:28;;;;;;;;;;;2.10;97.20;;;;;;5011544;28;19913;-67
2023/01/18 01:28:22;;;;;;;;;;;2.10;97.20;;;;;;5011114;28;19924;-67
2023/01/18 01:30:47;;;;;;;;;;;2.00;97.10;;;;;;4992966;28;20282;-67
2023/01/18 01:33:13;;;;;;;;;;;2.10;97.10;;;;;;5010974;28;19913;-66
2023/01/18 01:35:38;;;;;;;;;;;2.10;97.10;;;;;;5010073;28;19917;-67
2023/01/18 01:38:04;;;;;;;;;;;2.10;97.00;;;;;;5011261;28;20345;-67
2023/01/18 01:40:29;;;;;;;;;;;2.10;97.10;;;;;;5010983;28;19910;-67
2023/01/18 01:42:55;;;;;;;;;;;2.00;97.00;;;;;;5011193;28;19920;-67
2023/01/18 01:45:22;;;;;;;;;;;2.00;97.00;;;;;;5011228;28;19935;-67
2023/01/18 01:47:48;;;;;;;;;;;2.00;97.20;;;;;;5010859;28;19918;-67
2023/01/18 01:50:23;;;;;;;;;;;2.00;97.00;;;;;;5010557;28;20363;-67
2023/01/18 01:52:48;;;;;;;;;;;2.00;97.00;;;;;;5010676;28;19914;-67
2023/01/18 01:55:16;;;;;;;;;;;2.00;97.00;;;;;;5009403;28;19929;-66
2023/01/18 01:57:48;;;;;;;;;;;2.00;97.00;;;;;;5010896;28;20371;-67
2023/01/18 02:00:18;;;;;;;;;;;2.00;97.00;;;;;;5010228;28;19909;-67
2023/01/18 02:02:46;;;;;;;;;;;2.00;96.90;;;;;;5010848;28;19953;-67
2023/01/18 02:05:12;;;;;;;;;;;2.00;96.90;;;;;;5010310;28;19925;-67
2023/01/18 02:07:38;;;;;;;;;;;2.00;96.90;;;;;;4992778;28;19917;-67
2023/01/18 02:10:04;;;;;;;;;;;2.00;96.90;;;;;;5010228;28;19921;-67
2023/01/18 02:12:31;;;;;;;;;;;1.90;97.10;;;;;;5010176;28;19910;-67
2023/01/18 02:14:58;;;;;;;;;;;1.90;96.90;;;;;;5010265;28;20483;-67
2023/01/18 02:17:56;;;;;;;;;;;1.90;96.90;;;;;;5009973;28;20864;-67
2023/01/18 02:20:36;;;;;;;;;;;1.90;96.80;;;;;;4944482;28;20630;-67
2023/01/18 02:23:20;;;;;;;;;;;1.90;96.80;;;;;;5009926;28;20367;-67
2023/01/18 02:26:05;;;;;;;;;;;1.90;96.80;;;;;;5010029;28;19921;-67
2023/01/18 02:28:30;;;;;;;;;;;1.90;96.80;;;;;;5008672;28;19913;-67
2023/01/18 02:31:08;;;;;;;;;;;1.90;96.90;;;;;;5006674;28;19925;-67
2023/01/18 02:33:46;;;;;;;;;;;1.90;96.80;;;;;;5021601;28;20571;-67
2023/01/18 02:36:32;;;;;;;;;;;1.90;96.80;;;;;;5009763;28;20347;-67
2023/01/18 02:39:02;;;;;;;;;;;1.90;96.80;;;;;;4996163;28;19914;-67
2023/01/18 02:47:07;;;;;;;;;;;1.90;96.80;;;;;;5009790;28;20665;-67
2023/01/18 02:49:33;;;;;;;;;;;1.90;96.80;;;;;;5009568;28;19913;-67
2023/01/18 02:51:59;;;;;;;;;;;1.80;96.80;;;;;;5009797;28;20304;-67
2023/01/18 02:54:24;;;;;;;;;;;1.80;96.80;;;;;;5009801;28;19952;-67
2023/01/18 02:56:52;;;;;;;;;;;1.80;96.80;;;;;;5009666;28;19948;-67
2023/01/18 02:59:20;;;;;;;;;;;1.80;96.80;;;;;;5009622;28;20076;-67
2023/01/18 03:01:47;;;;;;;;;;;1.80;96.80;;;;;;5009587;28;19999;-67
2023/01/18 03:04:31;;;;;;;;;;;1.80;96.80;;;;;;5009715;28;20278;-67
2023/01/18 03:07:11;;;;;;;;;;;1.80;96.80;;;;;;5009207;28;19918;-67
2023/01/18 03:09:38;;;;;;;;;;;1.80;96.80;;;;;;5009376;28;19936;-67
2023/01/18 03:12:19;;;;;;;;;;;1.80;96.80;;;;;;5009822;28;19916;-67
2023/01/18 03:15:03;;;;;;;;;;;1.80;96.70;;;;;;5009517;28;19909;-67
2023/01/18 03:17:45;;;;;;;;;;;1.80;96.80;;;;;;5009548;28;19948;-67
2023/01/18 03:20:13;;;;;;;;;;;1.80;96.80;;;;;;5004975;28;19916;-67
2023/01/18 03:25:37;;;;;;;;;;;1.80;96.70;;;;;;4989352;28;20382;-67
2023/01/18 03:33:44;;;;;;;;;;;1.70;96.70;;;;;;4994156;28;19948;-67
2023/01/18 03:36:36;;;;;;;;;;;1.70;96.80;;;;;;5009144;28;19914;-67
2023/01/18 03:39:09;;;;;;;;;;;1.70;96.80;;;;;;5004481;28;19925;-67
2023/01/18 03:41:37;;;;;;;;;;;1.70;96.70;;;;;;5008456;28;20322;-67
2023/01/18 03:44:05;;;;;;;;;;;1.70;96.70;;;;;;5008440;28;19914;-67
2023/01/18 03:46:31;;;;;;;;;;;1.70;96.70;;;;;;5008629;28;20477;-67
2023/01/18 03:48:57;;;;;;;;;;;1.70;96.70;;;;;;4991127;28;19927;-67
2023/01/18 03:51:25;;;;;;;;;;;1.70;96.70;;;;;;5008166;28;19914;-67
2023/01/18 03:54:03;;;;;;;;;;;1.70;96.70;;;;;;5008810;28;20009;-67
2023/01/18 03:56:36;;;;;;;;;;;1.70;96.70;;;;;;5008570;28;19991;-67
2023/01/18 03:59:03;;;;;;;;;;;1.70;96.70;;;;;;4998592;28;19964;-66
2023/01/18 04:01:29;;;;;;;;;;;1.70;96.70;;;;;;5003357;28;20301;-67
2023/01/18 04:03:55;;;;;;;;;;;1.70;96.60;;;;;;5003959;28;19913;-67
2023/01/18 04:06:21;;;;;;;;;;;1.70;96.60;;;;;;4998216;28;19922;-67
2023/01/18 04:08:50;;;;;;;;;;;1.70;96.60;;;;;;4992776;28;19976;-67
2023/01/18 04:11:15;;;;;;;;;;;1.70;96.70;;;;;;4992647;28;19914;-67
2023/01/18 04:13:41;;;;;;;;;;;1.70;96.60;;;;;;4975403;28;20631;-66
2023/01/18 04:16:06;;;;;;;;;;;1.60;96.60;;;;;;4992510;28;19926;-67
2023/01/18 04:18:32;;;;;;;;;;;1.70;96.60;;;;;;4995323;28;20471;-67
2023/01/18 04:20:58;;;;;;;;;;;1.60;96.60;;;;;;5011721;28;19921;-67
2023/01/18 04:23:24;;;;;;;;;;;1.60;96.90;;;;;;5012336;28;19967;-67
2023/01/18 04:25:50;;;;;;;;;;;1.60;96.60;;;;;;5012296;28;19918;-67
2023/01/18 04:28:16;;;;;;;;;;;1.60;96.60;;;;;;5011463;28;19917;-67
2023/01/18 04:30:41;;;;;;;;;;;1.60;96.60;;;;;;5009912;28;19952;-67
2023/01/18 04:33:07;;;;;;;;;;;1.60;96.50;;;;;;5012372;28;19945;-67
2023/01/18 04:35:33;;;;;;;;;;;1.60;96.60;;;;;;5012551;28;19914;-67
2023/01/18 04:37:59;;;;;;;;;;;1.60;96.60;;;;;;5012388;28;19909;-67
2023/01/18 04:40:24;;;;;;;;;;;1.60;96.60;;;;;;5011733;28;20243;-67
2023/01/18 04:42:50;;;;;;;;;;;1.60;96.60;;;;;;5012292;28;20240;-67
2023/01/18 04:45:17;;;;;;;;;;;1.60;96.60;;;;;;5012087;28;19913;-67
2023/01/18 04:47:43;;;;;;;;;;;1.60;96.50;;;;;;5012257;28;19917;-67
2023/01/18 04:50:09;;;;;;;;;;;1.60;96.60;;;;;;5012040;28;19910;-67
2023/01/18 04:52:35;;;;;;;;;;;1.60;96.60;;;;;;5012172;28;20013;-67
2023/01/18 04:55:00;;;;;;;;;;;1.60;96.60;;;;;;5011982;28;19920;-67
2023/01/18 04:57:26;;;;;;;;;;;1.60;96.60;;;;;;5011583;28;20651;-67
2023/01/18 04:59:51;;;;;;;;;;;1.50;96.60;;;;;;5010292;28;19921;-67
2023/01/18 05:02:17;;;;;;;;;;;1.60;96.50;;;;;;5011676;28;20322;-67
2023/01/18 05:04:43;;;;;;;;;;;1.60;96.50;;;;;;5011626;28;19918;-67
2023/01/18 05:07:09;;;;;;;;;;;1.50;96.60;;;;;;5011820;28;19959;-67
2023/01/18 05:09:34;;;;;;;;;;;1.50;96.80;;;;;;5011197;28;20310;-67
2023/01/18 05:12:00;;;;;;;;;;;1.50;96.50;;;;;;5011551;28;19913;-67
2023/01/18 05:14:25;;;;;;;;;;;1.50;96.50;;;;;;5011380;28;19917;-67
2023/01/18 05:16:51;;;;;;;;;;;1.50;96.50;;;;;;5011325;28;19963;-67
2023/01/18 05:19:16;;;;;;;;;;;1.50;96.50;;;;;;5010515;28;19921;-67
2023/01/18 05:21:42;;;;;;;;;;;1.50;96.50;;;;;;5011012;28;19913;-67
2023/01/18 05:24:07;;;;;;;;;;;1.50;96.40;;;;;;5010030;28;19929;-67
2023/01/18 05:26:33;;;;;;;;;;;1.50;96.50;;;;;;4999835;28;19922;-67
2023/01/18 05:28:58;;;;;;;;;;;1.50;96.40;;;;;;4998648;28;19936;-67
2023/01/18 05:31:25;;;;;;;;;;;1.50;96.40;;;;;;5008292;28;20021;-67
2023/01/18 05:33:50;;;;;;;;;;;1.50;96.40;;;;;;5011190;28;19922;-67
2023/01/18 05:36:16;;;;;;;;;;;1.50;96.50;;;;;;5011025;28;20029;-67
2023/01/18 05:38:41;;;;;;;;;;;1.50;96.50;;;;;;5011300;28;20476;-67
2023/01/18 05:41:07;;;;;;;;;;;1.50;96.60;;;;;;5010106;28;19913;-67
2023/01/18 05:43:32;;;;;;;;;;;1.50;96.60;;;;;;5009416;28;19917;-67
2023/01/18 05:45:58;;;;;;;;;;;1.50;96.60;;;;;;5010868;28;19945;-67
2023/01/18 05:48:24;;;;;;;;;;;1.50;96.60;;;;;;5010988;28;19913;-67
2023/01/18 05:50:50;;;;;;;;;;;1.50;96.60;;;;;;5010497;28;19913;-67
2023/01/18 05:53:16;;;;;;;;;;;1.50;96.70;;;;;;5010553;28;20346;-67
2023/01/18 05:55:42;;;;;;;;;;;1.50;96.60;;;;;;5010600;28;19936;-67
2023/01/18 05:58:08;;;;;;;;;;;1.50;96.60;;;;;;5010770;28;20354;-67
2023/01/18 06:00:33;;;;;;;;;;;1.50;96.60;;;;;;4992609;28;19936;-67
2023/01/18 06:02:59;;;;;;;;;;;1.50;96.70;;;;;;5010653;28;19952;-67
2023/01/18 06:05:25;;;;;;;;;;;1.50;96.60;;;;;;5010625;28;20511;-67
2023/01/18 06:07:51;;;;;;;;;;;1.50;96.70;;;;;;5010879;28;19953;-67
2023/01/18 06:10:16;;;;;;;;;;;1.50;96.60;;;;;;5010522;28;19918;-67
2023/01/18 06:12:42;;;;;;;;;;;1.50;96.60;;;;;;5010348;28;20009;-67
2023/01/18 06:15:08;;;;;;;;;;;1.50;96.70;;;;;;5010383;28;19960;-67
2023/01/18 06:17:34;;;;;;;;;;;1.50;96.60;;;;;;5010259;28;20371;-67
2023/01/18 06:19:59;;;;;;;;;;;1.50;96.70;;;;;;5009605;28;19910;-67
2023/01/18 06:22:25;;;;;;;;;;;1.50;96.70;;;;;;5009715;28;19913;-67
2023/01/18 06:24:50;;;;;;;;;;;1.50;96.70;;;;;;5006934;28;19920;-67
2023/01/18 06:27:16;;;;;;;;;;;1.50;96.70;;;;;;5010641;28;20726;-67
2023/01/18 06:29:41;;;;;;;;;;;1.50;96.70;;;;;;5009885;28;19918;-67
2023/01/18 06:32:07;;;;;;;;;;;1.50;96.60;;;;;;5010026;28;19913;-67
2023/01/18 06:34:32;;;;;;;;;;;1.50;96.70;;;;;;5009854;28;19948;-67
2023/01/18 06:36:58;;;;;;;;;;;1.50;96.60;;;;;;5010182;28;19914;-67
2023/01/18 06:39:24;;;;;;;;;;;1.50;96.60;;;;;;5009587;28;19916;-67
2023/01/18 06:41:49;;;;;;;;;;;1.50;96.60;;;;;;5010011;28;19913;-67
2023/01/18 06:44:15;;;;;;;;;;;1.50;96.70;;;;;;5009828;28;19920;-67
2023/01/18 06:46:43;;;;;;;;;;;1.40;96.60;;;;;;5009832;28;19959;-67
2023/01/18 06:49:10;;;;;;;;;;;1.50;96.70;;;;;;5008169;28;20572;-67
2023/01/18 06:51:36;;;;;;;;;;;1.40;96.60;;;;;;5007539;28;19914;-67
2023/01/18 06:54:01;;;;;;;;;;;1.50;96.70;;;;;;5007577;28;19920;-67
2023/01/18 06:56:28;;;;;;;;;;;1.40;96.60;;;;;;5007815;28;19925;-67
2023/01/18 06:58:56;;;;;;;;;;;1.50;96.60;;;;;;5007814;28;20457;-67
2023/01/18 07:01:21;;;;;;;;;;;1.40;96.60;;;;;;5007464;28;20456;-67
2023/01/18 07:03:47;;;;;;;;;;;1.50;96.60;;;;;;5007783;28;19914;-67
2023/01/18 07:06:12;;;;;;;;;;;1.40;96.60;;;;;;5007162;28;19910;-67
2023/01/18 07:08:39;;;;;;;;;;;1.40;96.60;;;;;;5007453;28;19913;-67
2023/01/18 07:11:05;;;;;;;;;;;1.40;96.60;;;;;;5007298;28;19924;-67
2023/01/18 07:13:31;;;;;;;;;;;1.40;96.60;;;;;;5008307;28;19913;-67
2023/01/18 07:15:58;;;;;;;;;;;1.40;96.60;;;;;;4991636;28;19933;-67
2023/01/18 07:18:24;;;;;;;;;;;1.40;96.60;;;;;;5004370;28;19914;-67
2023/01/18 07:20:57;;;;;;;;;;;1.40;96.60;;;;;;5000359;28;19913;-67
2023/01/18 07:23:22;;;;;;;;;;;1.40;96.60;;;;;;4998543;28;20500;-67
2023/01/18 07:25:48;;;;;;;;;;;1.40;96.60;;;;;;5009349;28;19937;-67
2023/01/18 07:28:13;;;;;;;;;;;1.40;96.60;;;;;;5009058;28;19914;-67
2023/01/18 07:30:39;;;;;;;;;;;1.40;96.60;;;;;;5009185;28;20438;-67
2023/01/18 07:33:06;;;;;;;;;;;1.40;96.60;;;;;;5008440;28;19916;-67
2023/01/18 07:35:32;;;;;;;;;;;1.40;96.50;;;;;;5008569;28;19920;-67
2023/01/18 07:37:57;;;;;;;;;;;1.40;96.60;;;;;;5008856;28;20293;-67
2023/01/18 07:40:23;;;;;;;;;;;1.40;96.60;;;;;;5009224;28;19917;-67
2023/01/18 07:42:54;;;;;;;;;;;1.40;96.50;;;;;;5009181;28;19916;-67
2023/01/18 07:45:20;;;;;;;;;;;1.40;96.50;;;;;;5009323;28;19913;-67
2023/01/18 07:47:45;;;;;;;;;;;1.40;96.60;;;;;;5008944;28;20332;-67
2023/01/18 07:50:12;;;;;;;;;;;1.40;96.60;;;;;;5008696;28;19913;-67
2023/01/18 07:52:38;;;;;;;;;;;1.40;96.50;;;;;;5009082;28;20008;-67
2023/01/18 07:55:04;;;;;;;;;;;1.30;96.60;;;;;;5009108;28;20000;-67
2023/01/18 07:57:29;;;;;;;;;;;1.40;96.60;;;;;;5008912;28;19940;-67
2023/01/18 07:59:55;;;;;;;;;;;1.40;96.50;;;;;;5007478;28;19909;-67
2023/01/18 08:02:20;;;;;;;;;;;1.40;96.50;;;;;;5008919;28;19967;-67
2023/01/18 08:04:49;;;;;;;;;;;1.40;96.90;;;;;;5008973;28;20000;-67
2023/01/18 08:07:16;;;;;;;;;;;1.40;96.50;;;;;;5008787;28;19913;-67
2023/01/18 08:09:42;;;;;;;;;;;1.40;96.50;;;;;;5008572;28;19924;-67
2023/01/18 08:12:12;;;;;;;;;;;1.40;96.70;;;;;;5008795;28;20425;-67
2023/01/18 08:14:38;;;;;;;;;;;1.30;96.60;;;;;;5006848;28;21152;-67
2023/01/18 08:17:05;;;;;;;;;;;1.40;96.60;;;;;;5007482;28;19925;-67
2023/01/18 08:19:30;;;;;;;;;;;1.30;96.60;;;;;;5007964;28;20685;-67
2023/01/18 08:21:56;;;;;;;;;;;1.40;96.60;;;;;;5008384;28;19917;-67
2023/01/18 08:24:21;;;;;;;;;;;1.40;96.60;;;;;;5008684;28;19920;-67
2023/01/18 08:26:47;;;;;;;;;;;1.40;96.60;;;;;;5008552;28;19914;-67
2023/01/18 08:29:12;;;;;;;;;;;1.40;96.60;;;;;;5008477;28;19919;-67
2023/01/18 08:31:38;;;;;;;;;;;1.40;96.70;;;;;;5008208;28;19940;-67
2023/01/18 08:34:04;;;;;;;;;;;1.40;96.60;;;;;;5008133;28;19920;-67
2023/01/18 08:36:30;;;;;;;;;;;1.40;96.70;;;;;;5008472;28;19914;-67
2023/01/18 08:38:56;;;;;;;;;;;1.50;96.70;;;;;;5006921;28;20377;-67
2023/01/18 08:41:27;;;;;;;;;;;1.50;96.70;;;;;;4990496;28;19913;-67
2023/01/18 08:43:52;;;;;;;;;;;1.50;96.70;;;;;;5008342;28;20009;-67
2023/01/18 08:46:18;;;;;;;;;;;1.50;96.70;;;;;;5011046;28;20278;-67
2023/01/18 08:48:44;;;;;;;;;;;1.50;96.70;;;;;;5012179;28;20000;-67
2023/01/18 08:51:10;;;;;;;;;;;1.50;96.70;;;;;;5011706;28;20050;-67
2023/01/18 08:53:35;;;;;;;;;;;1.50;96.70;;;;;;5011978;28;19940;-67
2023/01/18 08:56:05;;;;;;;;;;;1.50;96.70;;;;;;5011830;28;19959;-67
2023/01/18 08:58:31;;;;;;;;;;;1.50;96.70;;;;;;5011975;28;20421;-66
2023/01/18 09:00:56;;;;;;;;;;;1.50;96.70;;;;;;5011851;28;19953;-67
2023/01/18 09:03:22;;;;;;;;;;;1.50;96.80;;;;;;5010850;28;19983;-67
2023/01/18 09:05:48;;;;;;;;;;;1.50;96.70;;;;;;5012202;28;19913;-67
2023/01/18 09:08:14;;;;;;;;;;;1.60;96.80;;;;;;5011757;28;19932;-67
2023/01/18 09:10:39;;;;;;;;;;;1.60;96.80;;;;;;4994059;28;19913;-67
2023/01/18 09:13:05;;;;;;;;;;;1.60;96.80;;;;;;5011582;28;19913;-67
2023/01/18 09:15:30;;;;;;;;;;;1.60;96.90;;;;;;5011411;28;20546;-67
2023/01/18 09:17:57;;;;;;;;;;;1.60;96.80;;;;;;5009541;28;19918;-67
2023/01/18 09:20:23;;;;;;;;;;;1.60;96.90;;;;;;5008797;28;19921;-67
2023/01/18 09:22:48;;;;;;;;;;;1.60;96.80;;;;;;5011461;28;19913;-67
2023/01/18 09:25:14;;;;;;;;;;;1.60;96.90;;;;;;5011749;28;19909;-67
2023/01/18 09:27:39;;;;;;;;;;;1.60;96.90;;;;;;4993701;28;19913;-67
2023/01/18 09:30:05;;;;;;;;;;;1.60;97.00;;;;;;5011277;28;20287;-67
2023/01/18 09:32:31;;;;;;;;;;;1.70;96.90;;;;;;5011697;28;19914;-67
2023/01/18 09:34:56;;;;;;;;;;;1.70;97.00;;;;;;5010792;28;19917;-67
2023/01/18 09:37:22;;;;;;;;;;;1.60;97.00;;;;;;5010281;28;19983;-67
2023/01/18 09:39:48;;;;;;;;;;;1.60;97.00;;;;;;5011373;28;20264;-67
2023/01/18 09:42:24;;;;;;;;;;;1.70;97.10;;;;;;5011348;28;19983;-67
2023/01/18 09:44:57;;;;;;;;;;;1.70;97.40;;;;;;5011481;28;20370;-67
2023/01/18 09:47:27;;;;;;;;;;;1.60;97.10;;;;;;5010818;28;19914;-67
2023/01/18 09:49:56;;;;;;;;;;;1.70;97.20;;;;;;5010997;28;19925;-67
2023/01/18 09:52:31;;;;;;;;;;;1.70;97.10;;;;;;4993525;28;20541;-67
2023/01/18 09:55:06;;;;;;;;;;;1.70;97.10;;;;;;5011362;28;19922;-67
2023/01/18 09:57:40;;;;;;;;;;;1.70;97.20;;;;;;5010159;28;20390;-67
2023/01/18 10:00:21;;;;;;;;;;;1.70;97.20;;;;;;5010657;28;19963;-67
2023/01/18 10:02:48;;;;;;;;;;;1.70;97.20;;;;;;5011120;28;19999;-67
2023/01/18 10:05:16;;;;;;;;;;;1.70;97.20;;;;;;5010960;28;19983;-67
2023/01/18 10:08:04;;;;;;;;;;;1.80;97.30;;;;;;5010696;28;19956;-67
2023/01/18 10:10:33;;;;;;;;;;;1.80;97.30;;;;;;5010532;28;19916;-67
2023/01/18 10:13:08;;;;;;;;;;;1.80;97.30;;;;;;5007510;28;19913;-67
2023/01/18 10:15:35;;;;;;;;;;;1.80;97.30;;;;;;5010968;28;20416;-67
2023/01/18 10:18:00;;;;;;;;;;;1.80;97.30;;;;;;5010136;28;19945;-67
2023/01/18 10:20:35;;;;;;;;;;;1.80;97.40;;;;;;5009864;28;19952;-67
2023/01/18 10:23:14;;;;;;;;;;;1.80;97.40;;;;;;5010272;28;19914;-67
2023/01/18 10:25:51;;;;;;;;;;;1.80;97.50;;;;;;5010656;28;19987;-67
2023/01/18 10:28:24;;;;;;;;;;;1.80;97.50;;;;;;5010181;28;20333;-67
2023/01/18 10:31:14;;;;;;;;;;;1.80;97.50;;;;;;5010228;28;19938;-67
2023/01/18 10:33:42;;;;;;;;;;;1.90;97.60;;;;;;4999680;28;19909;-67
2023/01/18 10:36:13;;;;;;;;;;;1.80;97.50;;;;;;5010353;28;20449;-67
2023/01/18 10:38:39;;;;;;;;;;;1.80;97.50;;;;;;5010456;28;19910;-67
2023/01/18 10:41:12;;;;;;;;;;;1.90;97.60;;;;;;5010070;28;20353;-67
2023/01/18 10:43:38;;;;;;;;;;;1.90;97.50;;;;;;5010355;28;19914;-67
2023/01/18 10:46:11;;;;;;;;;;;1.90;97.60;;;;;;4992493;28;19959;-67
2023/01/18 10:48:37;;;;;;;;;;;1.90;97.60;;;;;;4992340;28;19922;-67
2023/01/18 10:51:07;;;;;;;;;;;1.90;97.70;;;;;;5009539;28;19949;-67
2023/01/18 10:53:34;;;;;;;;;;;1.90;97.70;;;;;;5010251;28;19913;-67
2023/01/18 10:56:01;;;;;;;;;;;1.90;97.80;;;;;;4992418;28;19909;-67
2023/01/18 10:58:29;;;;;;;;;;;1.90;97.80;;;;;;4992092;28;19945;-67
2023/01/18 11:00:55;;;;;;;;;;;1.90;97.80;;;;;;5009556;28;19910;-67
2023/01/18 11:03:22;;;;;;;;;;;1.90;97.80;;;;;;5009969;28;19913;-67
2023/01/18 11:05:47;;;;;;;;;;;1.90;97.80;;;;;;4992173;28;19920;-67
2023/01/18 11:08:24;;;;;;;;;;;1.90;97.90;;;;;;5009254;28;19914;-67
2023/01/18 11:11:07;;;;;;;;;;;1.90;97.90;;;;;;4992072;28;20362;-67
2023/01/18 11:13:42;;;;;;;;;;;2.00;97.90;;;;;;5009785;28;20024;-67
2023/01/18 11:16:07;;;;;;;;;;;2.00;97.90;;;;;;5009354;28;19922;-67
2023/01/18 11:18:33;;;;;;;;;;;2.00;97.90;;;;;;5004705;28;19913;-67
2023/01/18 11:20:58;;;;;;;;;;;2.00;97.80;;;;;;5008602;28;19953;-67
2023/01/18 11:23:31;;;;;;;;;;;2.00;97.90;;;;;;5009386;28;19913;-67
2023/01/18 11:26:12;;;;;;;;;;;2.00;97.90;;;;;;5003465;28;19928;-67
2023/01/18 11:28:38;;;;;;;;;;;2.00;98.00;;;;;;4974498;28;19976;-67
2023/01/18 11:31:11;;;;;;;;;;;2.10;97.90;;;;;;4996377;28;19921;-67
2023/01/18 11:33:48;;;;;;;;;;;2.10;97.80;;;;;;4994443;28;19917;-67
2023/01/18 11:36:13;;;;;;;;;;;2.10;97.80;;;;;;5009253;28;19917;-67
2023/01/18 11:38:40;;;;;;;;;;;2.20;97.80;;;;;;5009137;28;20277;-67
2023/01/18 11:41:05;;;;;;;;;;;2.20;97.70;;;;;;4991099;28;19916;-67
2023/01/18 11:43:33;;;;;;;;;;;2.30;97.80;;;;;;5008707;28;19913;-67
2023/01/18 11:46:02;;;;;;;;;;;2.30;97.70;;;;;;5007948;28;19913;-67
2023/01/18 11:48:37;;;;;;;;;;;2.20;97.70;;;;;;5007150;28;19924;-67
2023/01/18 11:51:07;;;;;;;;;;;2.30;98.10;;;;;;5006782;28;19917;-67
2023/01/18 11:53:32;;;;;;;;;;;2.30;97.80;;;;;;5007229;28;19945;-67
2023/01/18 11:56:05;;;;;;;;;;;2.30;97.90;;;;;;5007175;28;20254;-67
2023/01/18 11:58:31;;;;;;;;;;;2.30;97.90;;;;;;4989395;28;19914;-66
2023/01/18 12:01:09;;;;;;;;;;;2.30;97.90;;;;;;5006854;28;20385;-67
2023/01/18 12:03:46;;;;;;;;;;;2.30;97.90;;;;;;5007246;28;19914;-66
2023/01/18 12:06:30;;;;;;;;;;;2.30;97.90;;;;;;5007073;28;19913;-67
2023/01/18 12:09:14;;;;;;;;;;;2.30;98.00;;;;;;5007112;28;20543;-67
2023/01/18 12:11:51;;;;;;;;;;;2.40;98.00;;;;;;5004149;28;19910;-67
2023/01/18 12:14:29;;;;;;;;;;;2.30;97.90;;;;;;5006928;28;19917;-67
2023/01/18 12:16:57;;;;;;;;;;;2.30;98.00;;;;;;5007134;28;19940;-67
2023/01/18 12:19:40;;;;;;;;;;;2.40;97.90;;;;;;5006024;28;20052;-66
2023/01/18 12:22:30;;;;;;;;;;;2.40;98.00;;;;;;5010692;28;19960;-67
2023/01/18 12:25:05;;;;;;;;;;;2.40;98.00;;;;;;5004945;28;19914;-67
2023/01/18 12:27:30;;;;;;;;;;;2.40;98.00;;;;;;4991012;28;19996;-67
2023/01/18 12:30:11;;;;;;;;;;;2.40;98.00;;;;;;4991184;28;19929;-66
2023/01/18 12:32:46;;;;;;;;;;;2.40;98.10;;;;;;4989952;28;19918;-67
2023/01/18 12:35:12;;;;;;;;;;;2.40;98.20;;;;;;4993135;28;19913;-66
2023/01/18 12:37:58;;;;;;;;;;;2.40;98.10;;;;;;5010310;28;19921;-67
2023/01/18 12:40:34;;;;;;;;;;;2.40;98.20;;;;;;5009632;28;19941;-66
2023/01/18 12:43:05;;;;;;;;;;;2.40;98.20;;;;;;5010242;28;19910;-67
2023/01/18 12:46:00;;;;;;;;;;;2.40;98.30;;;;;;5010806;28;20463;-67
2023/01/18 12:48:29;;;;;;;;;;;2.40;98.20;;;;;;4993149;28;20035;-67
2023/01/18 12:50:55;;;;;;;;;;;2.50;98.20;;;;;;5010355;28;19909;-66
2023/01/18 12:53:31;;;;;;;;;;;2.40;98.20;;;;;;5010474;28;20502;-66
2023/01/18 12:56:01;;;;;;;;;;;2.40;98.30;;;;;;5010125;28;19939;-67
2023/01/18 12:58:27;;;;;;;;;;;2.50;98.30;;;;;;5009928;28;19918;-66
2023/01/18 13:00:55;;;;;;;;;;;2.50;98.30;;;;;;5008377;28;19914;-66
2023/01/18 13:03:24;;;;;;;;;;;2.50;98.30;;;;;;5010301;28;20004;-67
2023/01/18 13:05:54;;;;;;;;;;;2.50;98.20;;;;;;5010336;28;20390;-67
2023/01/18 13:08:33;;;;;;;;;;;2.50;98.30;;;;;;5010352;28;19940;-67
2023/01/18 13:11:05;;;;;;;;;;;2.50;98.30;;;;;;4991969;28;19983;-66
2023/01/18 13:13:31;;;;;;;;;;;2.50;98.30;;;;;;5009866;28;20000;-67
2023/01/18 13:16:15;;;;;;;;;;;2.50;98.40;;;;;;5010052;28;20012;-66
2023/01/18 13:18:41;;;;;;;;;;;2.50;98.40;;;;;;5005182;28;20363;-66
2023/01/18 13:21:24;;;;;;;;;;;2.60;98.40;;;;;;5005741;28;19952;-66
2023/01/18 13:23:49;;;;;;;;;;;2.60;98.40;;;;;;5002834;28;19913;-66
2023/01/18 13:26:20;;;;;;;;;;;2.60;98.30;;;;;;5009347;28;19913;-67
2023/01/18 13:28:46;;;;;;;;;;;2.60;98.40;;;;;;5009680;28;19918;-66
2023/01/18 13:31:12;;;;;;;;;;;2.60;98.40;;;;;;5008777;28;20429;-66
2023/01/18 13:33:39;;;;;;;;;;;2.60;98.40;;;;;;5008924;28;19921;-66
2023/01/18 13:36:13;;;;;;;;;;;2.60;98.50;;;;;;5009783;28;19909;-66
2023/01/18 13:38:47;;;;;;;;;;;2.60;98.50;;;;;;5009315;28;19909;-67
2023/01/18 13:41:13;;;;;;;;;;;2.60;98.40;;;;;;5008549;28;19917;-66
2023/01/18 13:43:40;;;;;;;;;;;2.60;98.40;;;;;;5008910;28;19936;-66
2023/01/18 13:46:05;;;;;;;;;;;2.60;98.40;;;;;;5009554;28;20390;-67
2023/01/18 13:48:44;;;;;;;;;;;2.70;98.40;;;;;;5009317;28;19918;-67
2023/01/18 13:51:30;;;;;;;;;;;2.70;98.40;;;;;;5008922;28;19921;-67
2023/01/18 13:53:55;;;;;;;;;;;2.70;98.40;;;;;;5005421;28;19918;-66
2023/01/18 13:56:29;;;;;;;;;;;2.70;98.30;;;;;;5007785;28;19937;-67
2023/01/18 13:59:14;;;;;;;;;;;2.70;98.30;;;;;;5007073;28;20317;-67
2023/01/18 14:01:44;;;;;;;;;;;2.70;98.40;;;;;;5007389;28;19975;-67
2023/01/18 14:04:23;;;;;;;;;;;2.70;98.30;;;;;;5008757;28;19909;-67
2023/01/18 14:06:50;;;;;;;;;;;2.70;98.40;;;;;;5008612;28;19940;-67
2023/01/18 14:09:17;;;;;;;;;;;2.70;98.40;;;;;;5009434;28;20011;-70
2023/01/18 14:11:49;;;;;;;;;;;2.70;98.40;;;;;;5008304;28;19920;-66
2023/01/18 14:14:16;;;;;;;;;;;2.70;98.50;;;;;;5008700;28;19913;-66
2023/01/18 14:16:55;;;;;;;;;;;2.70;98.40;;;;;;5008572;28;19922;-67
2023/01/18 14:19:21;;;;;;;;;;;2.70;98.40;;;;;;5003236;28;19913;-66
2023/01/18 14:21:50;;;;;;;;;;;2.70;98.40;;;;;;5005736;28;19917;-66
2023/01/18 14:24:24;;;;;;;;;;;2.70;98.50;;;;;;5008610;28;19910;-67
2023/01/18 14:26:52;;;;;;;;;;;2.70;98.40;;;;;;5008581;28;19917;-67
2023/01/18 14:29:26;;;;;;;;;;;2.70;98.30;;;;;;5008375;28;19944;-67
2023/01/18 14:31:53;;;;;;;;;;;2.70;98.40;;;;;;5007738;28;20367;-66
2023/01/18 14:34:38;;;;;;;;;;;2.80;98.40;;;;;;4991072;28;19913;-67
2023/01/18 14:37:21;;;;;;;;;;;2.70;98.40;;;;;;5008500;28;19940;-67
2023/01/18 14:39:46;;;;;;;;;;;2.80;98.50;;;;;;5007361;28;19916;-66
2023/01/18 14:42:12;;;;;;;;;;;2.70;98.60;;;;;;5007010;28;19913;-66
2023/01/18 14:44:40;;;;;;;;;;;2.80;98.30;;;;;;5006898;28;20044;-67
2023/01/18 14:47:11;;;;;;;;;;;2.80;98.40;;;;;;5006790;28;19917;-66
2023/01/18 14:49:37;;;;;;;;;;;2.80;98.40;;;;;;5005194;28;19921;-66
2023/01/18 14:52:03;;;;;;;;;;;2.80;98.30;;;;;;5007096;28;19913;-66
2023/01/18 14:54:29;;;;;;;;;;;2.80;98.30;;;;;;4996202;28;19916;-66
2023/01/18 14:57:02;;;;;;;;;;;2.80;98.40;;;;;;5004555;28;20382;-67
2023/01/18 14:59:30;;;;;;;;;;;2.70;98.40;;;;;;5005524;28;19913;-67
2023/01/18 15:02:00;;;;;;;;;;;2.80;98.40;;;;;;5007014;28;19948;-66
2023/01/18 15:04:29;;;;;;;;;;;2.70;98.40;;;;;;4987995;28;20458;-66
2023/01/18 15:07:03;;;;;;;;;;;2.80;98.40;;;;;;5006905;28;20414;-66
2023/01/18 15:09:34;;;;;;;;;;;2.80;98.40;;;;;;5006735;28;20390;-67
2023/01/18 15:12:03;;;;;;;;;;;2.70;98.40;;;;;;5006724;28;19992;-67
2023/01/18 15:14:31;;;;;;;;;;;2.70;98.40;;;;;;5006982;28;20470;-67
2023/01/18 15:16:57;;;;;;;;;;;2.70;98.40;;;;;;5007121;28;19932;-67